sensor_id;sensor_type;location;lat;lon;timestamp;P1;durP1;ratioP1;P2;durP2;ratioP2
57457;SDS011;43304;52.332;6.110;2023-04-24T00:01:15;4.07;;;3.75;;
57457;SDS011;43304;52.332;6.110;2023-04-24T00:03:43;3.85;;;3.58;;
57457;SDS011;43304;52.332;6.110;2023-04-24T00:06:11;3.42;;;3.20;;
57457;SDS011;43304;52.332;6.110;2023-04-24T00:08:38;3.20;;;3.00;;
57457;SDS011;43304;52.332;6.110;2023-04-24T00:11:05;4.23;;;3.83;;
57457;SDS011;43304;52.332;6.110;2023-04-24T00:13:31;3.65;;;3.15;;
57457;SDS011;43304;52.332;6.110;2023-04-24T00:15:58;3.83;;;3.42;;
57457;SDS011;43304;52.332;6.110;2023-04-24T00:18:26;4.05;;;3.67;;
57457;SDS011;43304;52.332;6.110;2023-04-24T00:20:53;5.03;;;4.53;;
57457;SDS011;43304;52.332;6.110;2023-04-24T00:23:19;5.85;;;4.75;;
57457;SDS011;43304;52.332;6.110;2023-04-24T00:25:46;5.85;;;5.25;;
57457;SDS011;43304;52.332;6.110;2023-04-24T00:28:13;7.15;;;6.53;;
57457;SDS011;43304;52.332;6.110;2023-04-24T00:30:40;6.50;;;6.00;;
57457;SDS011;43304;52.332;6.110;2023-04-24T00:33:07;5.93;;;5.43;;
57457;SDS011;43304;52.332;6.110;2023-04-24T00:35:34;5.90;;;5.50;;
57457;SDS011;43304;52.332;6.110;2023-04-24T00:38:01;7.30;;;6.50;;
57457;SDS011;43304;52.332;6.110;2023-04-24T00:40:28;5.25;;;4.85;;
57457;SDS011;43304;52.332;6.110;2023-04-24T00:42:55;5.97;;;5.47;;
57457;SDS011;43304;52.332;6.110;2023-04-24T00:45:22;5.80;;;5.30;;
57457;SDS011;43304;52.332;6.110;2023-04-24T00:47:49;6.30;;;5.80;;
57457;SDS011;43304;52.332;6.110;2023-04-24T00:50:20;6.57;;;6.07;;
57457;SDS011;43304;52.332;6.110;2023-04-24T00:52:48;7.93;;;7.32;;
57457;SDS011;43304;52.332;6.110;2023-04-24T00:55:15;7.95;;;7.25;;
57457;SDS011;43304;52.332;6.110;2023-04-24T00:57:42;9.10;;;8.33;;
57457;SDS011;43304;52.332;6.110;2023-04-24T01:00:10;8.50;;;7.80;;
57457;SDS011;43304;52.332;6.110;2023-04-24T01:02:39;9.30;;;8.50;;
57457;SDS011;43304;52.332;6.110;2023-04-24T01:05:14;9.88;;;9.18;;
57457;SDS011;43304;52.332;6.110;2023-04-24T01:07:43;10.82;;;10.02;;
57457;SDS011;43304;52.332;6.110;2023-04-24T01:10:13;8.90;;;8.20;;
57457;SDS011;43304;52.332;6.110;2023-04-24T01:12:40;9.38;;;8.77;;
57457;SDS011;43304;52.332;6.110;2023-04-24T01:15:07;8.93;;;8.17;;
57457;SDS011;43304;52.332;6.110;2023-04-24T01:17:35;9.23;;;8.53;;
57457;SDS011;43304;52.332;6.110;2023-04-24T01:20:02;10.05;;;9.25;;
57457;SDS011;43304;52.332;6.110;2023-04-24T01:22:33;9.30;;;8.60;;
57457;SDS011;43304;52.332;6.110;2023-04-24T01:25:01;8.88;;;8.18;;
57457;SDS011;43304;52.332;6.110;2023-04-24T01:27:29;9.17;;;8.47;;
57457;SDS011;43304;52.332;6.110;2023-04-24T01:29:55;9.10;;;8.40;;
57457;SDS011;43304;52.332;6.110;2023-04-24T01:32:23;9.00;;;8.30;;
57457;SDS011;43304;52.332;6.110;2023-04-24T01:34:51;8.18;;;7.60;;
57457;SDS011;43304;52.332;6.110;2023-04-24T01:37:18;8.85;;;8.15;;
57457;SDS011;43304;52.332;6.110;2023-04-24T01:39:45;8.45;;;7.85;;
57457;SDS011;43304;52.332;6.110;2023-04-24T01:42:12;9.05;;;8.35;;
57457;SDS011;43304;52.332;6.110;2023-04-24T01:44:40;9.23;;;8.53;;
57457;SDS011;43304;52.332;6.110;2023-04-24T01:47:07;9.47;;;8.70;;
57457;SDS011;43304;52.332;6.110;2023-04-24T01:49:34;9.38;;;8.70;;
57457;SDS011;43304;52.332;6.110;2023-04-24T01:52:02;8.82;;;8.13;;
57457;SDS011;43304;52.332;6.110;2023-04-24T01:54:29;8.95;;;8.25;;
57457;SDS011;43304;52.332;6.110;2023-04-24T01:56:56;9.02;;;8.32;;
57457;SDS011;43304;52.332;6.110;2023-04-24T01:59:23;10.05;;;9.20;;
57457;SDS011;43304;52.332;6.110;2023-04-24T02:01:50;9.65;;;8.88;;
57457;SDS011;43304;52.332;6.110;2023-04-24T02:04:17;9.85;;;9.15;;
57457;SDS011;43304;52.332;6.110;2023-04-24T02:06:44;11.10;;;10.20;;
57457;SDS011;43304;52.332;6.110;2023-04-24T02:09:11;10.77;;;9.88;;
57457;SDS011;43304;52.332;6.110;2023-04-24T02:11:38;10.27;;;9.48;;
57457;SDS011;43304;52.332;6.110;2023-04-24T02:14:05;9.73;;;9.02;;
57457;SDS011;43304;52.332;6.110;2023-04-24T02:16:32;11.65;;;10.75;;
57457;SDS011;43304;52.332;6.110;2023-04-24T02:18:59;10.93;;;10.07;;
57457;SDS011;43304;52.332;6.110;2023-04-24T02:21:26;11.20;;;9.33;;
57457;SDS011;43304;52.332;6.110;2023-04-24T02:23:54;11.27;;;10.48;;
57457;SDS011;43304;52.332;6.110;2023-04-24T02:26:21;10.55;;;9.75;;
57457;SDS011;43304;52.332;6.110;2023-04-24T02:28:48;11.35;;;10.55;;
57457;SDS011;43304;52.332;6.110;2023-04-24T02:31:15;10.07;;;9.38;;
57457;SDS011;43304;52.332;6.110;2023-04-24T02:33:42;11.18;;;10.38;;
57457;SDS011;43304;52.332;6.110;2023-04-24T02:36:09;11.85;;;11.00;;
57457;SDS011;43304;52.332;6.110;2023-04-24T02:38:36;11.70;;;10.80;;
57457;SDS011;43304;52.332;6.110;2023-04-24T02:41:03;11.40;;;10.60;;
57457;SDS011;43304;52.332;6.110;2023-04-24T02:43:32;11.93;;;11.00;;
57457;SDS011;43304;52.332;6.110;2023-04-24T02:46:00;13.10;;;12.07;;
57457;SDS011;43304;52.332;6.110;2023-04-24T02:48:27;13.60;;;12.50;;
57457;SDS011;43304;52.332;6.110;2023-04-24T02:50:54;14.15;;;13.10;;
57457;SDS011;43304;52.332;6.110;2023-04-24T02:53:21;14.23;;;13.13;;
57457;SDS011;43304;52.332;6.110;2023-04-24T02:55:49;15.70;;;14.50;;
57457;SDS011;43304;52.332;6.110;2023-04-24T02:58:16;15.27;;;14.18;;
57457;SDS011;43304;52.332;6.110;2023-04-24T03:00:43;17.05;;;15.75;;
57457;SDS011;43304;52.332;6.110;2023-04-24T03:03:11;17.70;;;16.30;;
57457;SDS011;43304;52.332;6.110;2023-04-24T03:05:38;16.33;;;15.13;;
57457;SDS011;43304;52.332;6.110;2023-04-24T03:08:05;16.55;;;15.35;;
57457;SDS011;43304;52.332;6.110;2023-04-24T03:10:32;15.65;;;14.45;;
57457;SDS011;43304;52.332;6.110;2023-04-24T03:12:59;14.90;;;13.80;;
57457;SDS011;43304;52.332;6.110;2023-04-24T03:15:26;13.43;;;12.43;;
57457;SDS011;43304;52.332;6.110;2023-04-24T03:17:54;13.52;;;12.52;;
57457;SDS011;43304;52.332;6.110;2023-04-24T03:20:22;12.63;;;11.70;;
57457;SDS011;43304;52.332;6.110;2023-04-24T03:22:49;13.68;;;12.57;;
57457;SDS011;43304;52.332;6.110;2023-04-24T03:25:16;11.68;;;10.77;;
57457;SDS011;43304;52.332;6.110;2023-04-24T03:27:43;11.68;;;10.77;;
57457;SDS011;43304;52.332;6.110;2023-04-24T03:30:10;10.05;;;9.35;;
57457;SDS011;43304;52.332;6.110;2023-04-24T03:32:37;9.60;;;8.90;;
57457;SDS011;43304;52.332;6.110;2023-04-24T03:35:06;9.65;;;8.95;;
57457;SDS011;43304;52.332;6.110;2023-04-24T03:37:35;10.15;;;9.45;;
57457;SDS011;43304;52.332;6.110;2023-04-24T03:40:02;9.77;;;8.98;;
57457;SDS011;43304;52.332;6.110;2023-04-24T03:42:29;10.38;;;9.57;;
57457;SDS011;43304;52.332;6.110;2023-04-24T03:44:56;9.52;;;8.73;;
57457;SDS011;43304;52.332;6.110;2023-04-24T03:47:23;9.73;;;9.02;;
57457;SDS011;43304;52.332;6.110;2023-04-24T03:49:50;10.30;;;9.50;;
57457;SDS011;43304;52.332;6.110;2023-04-24T03:52:17;10.60;;;9.80;;
57457;SDS011;43304;52.332;6.110;2023-04-24T03:54:44;10.98;;;10.18;;
57457;SDS011;43304;52.332;6.110;2023-04-24T03:57:11;11.55;;;10.65;;
57457;SDS011;43304;52.332;6.110;2023-04-24T03:59:38;11.10;;;10.30;;
57457;SDS011;43304;52.332;6.110;2023-04-24T04:02:05;11.98;;;11.07;;
57457;SDS011;43304;52.332;6.110;2023-04-24T04:04:32;11.93;;;10.93;;
57457;SDS011;43304;52.332;6.110;2023-04-24T04:07:00;12.07;;;11.18;;
57457;SDS011;43304;52.332;6.110;2023-04-24T04:09:29;13.45;;;12.35;;
57457;SDS011;43304;52.332;6.110;2023-04-24T04:11:56;12.95;;;11.95;;
57457;SDS011;43304;52.332;6.110;2023-04-24T04:14:23;13.20;;;12.15;;
57457;SDS011;43304;52.332;6.110;2023-04-24T04:16:50;13.93;;;12.82;;
57457;SDS011;43304;52.332;6.110;2023-04-24T04:19:20;15.00;;;13.80;;
57457;SDS011;43304;52.332;6.110;2023-04-24T04:21:47;14.55;;;13.35;;
57457;SDS011;43304;52.332;6.110;2023-04-24T04:24:19;14.65;;;13.45;;
57457;SDS011;43304;52.332;6.110;2023-04-24T04:26:50;15.23;;;13.93;;
57457;SDS011;43304;52.332;6.110;2023-04-24T04:29:18;15.73;;;14.32;;
57457;SDS011;43304;52.332;6.110;2023-04-24T04:31:45;14.95;;;13.75;;
57457;SDS011;43304;52.332;6.110;2023-04-24T04:34:13;14.23;;;13.13;;
57457;SDS011;43304;52.332;6.110;2023-04-24T04:36:41;13.95;;;12.75;;
57457;SDS011;43304;52.332;6.110;2023-04-24T04:39:09;13.68;;;12.57;;
57457;SDS011;43304;52.332;6.110;2023-04-24T04:41:36;13.43;;;12.23;;
57457;SDS011;43304;52.332;6.110;2023-04-24T04:44:04;11.88;;;10.88;;
57457;SDS011;43304;52.332;6.110;2023-04-24T04:46:31;12.63;;;11.43;;
57457;SDS011;43304;52.332;6.110;2023-04-24T04:49:01;14.15;;;12.75;;
57457;SDS011;43304;52.332;6.110;2023-04-24T04:51:28;11.80;;;10.80;;
57457;SDS011;43304;52.332;6.110;2023-04-24T04:53:56;11.85;;;10.77;;
57457;SDS011;43304;52.332;6.110;2023-04-24T04:56:22;13.83;;;11.87;;
57457;SDS011;43304;52.332;6.110;2023-04-24T04:58:49;13.48;;;12.00;;
57457;SDS011;43304;52.332;6.110;2023-04-24T05:01:16;14.05;;;12.55;;
57457;SDS011;43304;52.332;6.110;2023-04-24T05:03:44;14.25;;;12.85;;
57457;SDS011;43304;52.332;6.110;2023-04-24T05:06:11;14.80;;;13.20;;
57457;SDS011;43304;52.332;6.110;2023-04-24T05:08:38;16.55;;;13.85;;
57457;SDS011;43304;52.332;6.110;2023-04-24T05:11:05;15.10;;;13.43;;
57457;SDS011;43304;52.332;6.110;2023-04-24T05:13:32;13.40;;;12.13;;
57457;SDS011;43304;52.332;6.110;2023-04-24T05:16:06;12.80;;;11.60;;
57457;SDS011;43304;52.332;6.110;2023-04-24T05:18:33;25.50;;;14.90;;
57457;SDS011;43304;52.332;6.110;2023-04-24T05:21:00;16.63;;;12.13;;
57457;SDS011;43304;52.332;6.110;2023-04-24T05:23:28;11.15;;;10.05;;
57457;SDS011;43304;52.332;6.110;2023-04-24T05:25:55;9.73;;;8.73;;
57457;SDS011;43304;52.332;6.110;2023-04-24T05:28:22;10.60;;;9.48;;
57457;SDS011;43304;52.332;6.110;2023-04-24T05:30:49;10.52;;;9.02;;
57457;SDS011;43304;52.332;6.110;2023-04-24T05:33:16;13.48;;;9.98;;
57457;SDS011;43304;52.332;6.110;2023-04-24T05:35:43;9.67;;;8.67;;
57457;SDS011;43304;52.332;6.110;2023-04-24T05:38:13;10.50;;;9.15;;
57457;SDS011;43304;52.332;6.110;2023-04-24T05:40:40;12.13;;;8.98;;
57457;SDS011;43304;52.332;6.110;2023-04-24T05:43:07;8.95;;;8.15;;
57457;SDS011;43304;52.332;6.110;2023-04-24T05:45:34;8.45;;;7.63;;
57457;SDS011;43304;52.332;6.110;2023-04-24T05:48:02;11.32;;;8.85;;
57457;SDS011;43304;52.332;6.110;2023-04-24T05:50:30;10.32;;;8.57;;
57457;SDS011;43304;52.332;6.110;2023-04-24T05:52:57;13.57;;;9.97;;
57457;SDS011;43304;52.332;6.110;2023-04-24T05:55:25;17.57;;;12.20;;
57457;SDS011;43304;52.332;6.110;2023-04-24T05:57:52;21.63;;;12.98;;
57457;SDS011;43304;52.332;6.110;2023-04-24T06:00:19;12.13;;;10.00;;
57457;SDS011;43304;52.332;6.110;2023-04-24T06:02:46;13.48;;;11.13;;
57457;SDS011;43304;52.332;6.110;2023-04-24T06:05:14;10.93;;;9.50;;
57457;SDS011;43304;52.332;6.110;2023-04-24T06:07:41;9.30;;;8.40;;
57457;SDS011;43304;52.332;6.110;2023-04-24T06:10:08;8.85;;;7.80;;
57457;SDS011;43304;52.332;6.110;2023-04-24T06:12:36;7.80;;;7.00;;
57457;SDS011;43304;52.332;6.110;2023-04-24T06:15:04;7.95;;;7.15;;
57457;SDS011;43304;52.332;6.110;2023-04-24T06:17:31;6.77;;;6.17;;
57457;SDS011;43304;52.332;6.110;2023-04-24T06:19:59;6.95;;;6.25;;
57457;SDS011;43304;52.332;6.110;2023-04-24T06:22:26;5.93;;;5.35;;
57457;SDS011;43304;52.332;6.110;2023-04-24T06:24:53;5.57;;;4.93;;
57457;SDS011;43304;52.332;6.110;2023-04-24T06:27:20;5.25;;;4.68;;
57457;SDS011;43304;52.332;6.110;2023-04-24T06:29:47;4.78;;;4.38;;
57457;SDS011;43304;52.332;6.110;2023-04-24T06:32:23;4.30;;;3.90;;
57457;SDS011;43304;52.332;6.110;2023-04-24T06:34:51;4.97;;;4.43;;
57457;SDS011;43304;52.332;6.110;2023-04-24T06:37:22;5.22;;;4.70;;
57457;SDS011;43304;52.332;6.110;2023-04-24T06:39:49;5.50;;;5.00;;
57457;SDS011;43304;52.332;6.110;2023-04-24T06:42:16;6.38;;;5.78;;
57457;SDS011;43304;52.332;6.110;2023-04-24T06:44:43;6.25;;;5.65;;
57457;SDS011;43304;52.332;6.110;2023-04-24T06:47:11;7.30;;;6.60;;
57457;SDS011;43304;52.332;6.110;2023-04-24T06:49:40;7.40;;;6.70;;
57457;SDS011;43304;52.332;6.110;2023-04-24T06:52:07;7.90;;;7.10;;
57457;SDS011;43304;52.332;6.110;2023-04-24T06:54:34;8.37;;;7.47;;
57457;SDS011;43304;52.332;6.110;2023-04-24T06:57:01;14.25;;;9.48;;
57457;SDS011;43304;52.332;6.110;2023-04-24T06:59:29;14.38;;;9.45;;
57457;SDS011;43304;52.332;6.110;2023-04-24T07:01:59;16.35;;;10.65;;
57457;SDS011;43304;52.332;6.110;2023-04-24T07:04:26;17.25;;;11.18;;
57457;SDS011;43304;52.332;6.110;2023-04-24T07:06:53;12.00;;;9.77;;
57457;SDS011;43304;52.332;6.110;2023-04-24T07:09:25;15.30;;;10.35;;
57457;SDS011;43304;52.332;6.110;2023-04-24T07:11:52;11.88;;;8.73;;
57457;SDS011;43304;52.332;6.110;2023-04-24T07:14:20;13.40;;;8.30;;
57457;SDS011;43304;52.332;6.110;2023-04-24T07:16:46;12.32;;;7.95;;
57457;SDS011;43304;52.332;6.110;2023-04-24T07:19:14;9.07;;;7.25;;
57457;SDS011;43304;52.332;6.110;2023-04-24T07:21:41;12.00;;;7.80;;
57457;SDS011;43304;52.332;6.110;2023-04-24T07:24:08;10.95;;;6.80;;
57457;SDS011;43304;52.332;6.110;2023-04-24T07:26:37;11.50;;;7.68;;
57457;SDS011;43304;52.332;6.110;2023-04-24T07:29:06;8.67;;;6.83;;
57457;SDS011;43304;52.332;6.110;2023-04-24T07:31:33;10.73;;;7.63;;
57457;SDS011;43304;52.332;6.110;2023-04-24T07:34:00;12.90;;;8.50;;
57457;SDS011;43304;52.332;6.110;2023-04-24T07:36:27;11.35;;;8.05;;
57457;SDS011;43304;52.332;6.110;2023-04-24T07:38:58;10.07;;;7.60;;
57457;SDS011;43304;52.332;6.110;2023-04-24T07:41:25;12.37;;;8.17;;
57457;SDS011;43304;52.332;6.110;2023-04-24T07:43:54;12.10;;;7.85;;
57457;SDS011;43304;52.332;6.110;2023-04-24T07:46:21;8.65;;;6.85;;
57457;SDS011;43304;52.332;6.110;2023-04-24T07:48:50;16.63;;;8.50;;
57457;SDS011;43304;52.332;6.110;2023-04-24T07:51:35;12.37;;;9.40;;
57457;SDS011;43304;52.332;6.110;2023-04-24T07:54:05;15.67;;;11.47;;
57457;SDS011;43304;52.332;6.110;2023-04-24T07:56:32;24.52;;;13.63;;
57457;SDS011;43304;52.332;6.110;2023-04-24T07:59:00;21.00;;;14.63;;
57457;SDS011;43304;52.332;6.110;2023-04-24T08:01:28;23.65;;;16.40;;
57457;SDS011;43304;52.332;6.110;2023-04-24T08:03:55;29.23;;;18.50;;
57457;SDS011;43304;52.332;6.110;2023-04-24T08:06:22;24.60;;;16.75;;
57457;SDS011;43304;52.332;6.110;2023-04-24T08:08:49;22.50;;;15.37;;
57457;SDS011;43304;52.332;6.110;2023-04-24T08:11:18;20.98;;;14.93;;
57457;SDS011;43304;52.332;6.110;2023-04-24T08:13:45;21.38;;;15.85;;
57457;SDS011;43304;52.332;6.110;2023-04-24T08:16:12;25.63;;;19.42;;
57457;SDS011;43304;52.332;6.110;2023-04-24T08:18:39;30.42;;;22.08;;
57457;SDS011;43304;52.332;6.110;2023-04-24T08:21:06;34.03;;;24.23;;
57457;SDS011;43304;52.332;6.110;2023-04-24T08:23:33;36.60;;;26.13;;
57457;SDS011;43304;52.332;6.110;2023-04-24T08:26:01;29.45;;;23.08;;
57457;SDS011;43304;52.332;6.110;2023-04-24T08:28:28;33.22;;;24.52;;
57457;SDS011;43304;52.332;6.110;2023-04-24T08:30:55;35.65;;;24.95;;
57457;SDS011;43304;52.332;6.110;2023-04-24T08:33:22;36.28;;;25.65;;
57457;SDS011;43304;52.332;6.110;2023-04-24T08:35:50;35.70;;;26.17;;
57457;SDS011;43304;52.332;6.110;2023-04-24T08:38:16;37.50;;;25.65;;
57457;SDS011;43304;52.332;6.110;2023-04-24T08:40:43;36.60;;;26.52;;
57457;SDS011;43304;52.332;6.110;2023-04-24T08:43:12;36.17;;;27.35;;
57457;SDS011;43304;52.332;6.110;2023-04-24T08:45:40;38.35;;;27.52;;
57457;SDS011;43304;52.332;6.110;2023-04-24T08:48:07;39.17;;;28.30;;
57457;SDS011;43304;52.332;6.110;2023-04-24T08:50:52;36.63;;;26.75;;
57457;SDS011;43304;52.332;6.110;2023-04-24T08:53:20;40.28;;;27.50;;
57457;SDS011;43304;52.332;6.110;2023-04-24T08:55:47;37.55;;;27.05;;
57457;SDS011;43304;52.332;6.110;2023-04-24T08:58:15;38.05;;;26.58;;
57457;SDS011;43304;52.332;6.110;2023-04-24T09:00:43;31.95;;;23.77;;
57457;SDS011;43304;52.332;6.110;2023-04-24T09:03:16;28.90;;;22.30;;
57457;SDS011;43304;52.332;6.110;2023-04-24T09:05:44;32.67;;;21.98;;
57457;SDS011;43304;52.332;6.110;2023-04-24T09:08:13;28.40;;;21.02;;
57457;SDS011;43304;52.332;6.110;2023-04-24T09:10:40;25.83;;;20.48;;
57457;SDS011;43304;52.332;6.110;2023-04-24T09:13:08;27.48;;;19.80;;
57457;SDS011;43304;52.332;6.110;2023-04-24T09:15:38;28.90;;;20.35;;
57457;SDS011;43304;52.332;6.110;2023-04-24T09:18:06;26.02;;;18.15;;
57457;SDS011;43304;52.332;6.110;2023-04-24T09:20:33;26.35;;;18.95;;
57457;SDS011;43304;52.332;6.110;2023-04-24T09:23:02;27.67;;;20.10;;
57457;SDS011;43304;52.332;6.110;2023-04-24T09:25:33;26.02;;;19.58;;
57457;SDS011;43304;52.332;6.110;2023-04-24T09:28:04;38.00;;;24.63;;
57457;SDS011;43304;52.332;6.110;2023-04-24T09:30:33;28.97;;;20.87;;
57457;SDS011;43304;52.332;6.110;2023-04-24T09:33:10;28.27;;;20.23;;
57457;SDS011;43304;52.332;6.110;2023-04-24T09:35:41;27.08;;;19.88;;
57457;SDS011;43304;52.332;6.110;2023-04-24T09:38:17;32.17;;;21.42;;
57457;SDS011;43304;52.332;6.110;2023-04-24T09:40:44;31.30;;;21.83;;
57457;SDS011;43304;52.332;6.110;2023-04-24T09:43:11;36.20;;;23.98;;
57457;SDS011;43304;52.332;6.110;2023-04-24T09:45:39;30.88;;;20.48;;
57457;SDS011;43304;52.332;6.110;2023-04-24T09:48:09;24.20;;;17.48;;
57457;SDS011;43304;52.332;6.110;2023-04-24T09:50:37;28.50;;;16.90;;
57457;SDS011;43304;52.332;6.110;2023-04-24T09:53:04;17.30;;;10.93;;
57457;SDS011;43304;52.332;6.110;2023-04-24T09:55:35;15.23;;;10.15;;
57457;SDS011;43304;52.332;6.110;2023-04-24T09:58:05;18.55;;;9.68;;
57457;SDS011;43304;52.332;6.110;2023-04-24T10:00:34;19.70;;;11.00;;
57457;SDS011;43304;52.332;6.110;2023-04-24T10:03:02;16.23;;;9.38;;
57457;SDS011;43304;52.332;6.110;2023-04-24T10:05:31;17.58;;;9.52;;
57457;SDS011;43304;52.332;6.110;2023-04-24T10:08:03;15.55;;;8.48;;
57457;SDS011;43304;52.332;6.110;2023-04-24T10:10:41;18.20;;;8.95;;
57457;SDS011;43304;52.332;6.110;2023-04-24T10:13:10;22.42;;;9.25;;
57457;SDS011;43304;52.332;6.110;2023-04-24T10:15:38;16.48;;;8.18;;
57457;SDS011;43304;52.332;6.110;2023-04-24T10:18:07;17.50;;;8.48;;
57457;SDS011;43304;52.332;6.110;2023-04-24T10:20:36;18.77;;;8.48;;
57457;SDS011;43304;52.332;6.110;2023-04-24T10:23:04;21.27;;;9.07;;
57457;SDS011;43304;52.332;6.110;2023-04-24T10:25:32;20.63;;;8.63;;
57457;SDS011;43304;52.332;6.110;2023-04-24T10:28:00;23.60;;;8.75;;
57457;SDS011;43304;52.332;6.110;2023-04-24T10:30:29;21.63;;;7.97;;
57457;SDS011;43304;52.332;6.110;2023-04-24T10:32:57;20.70;;;6.95;;
57457;SDS011;43304;52.332;6.110;2023-04-24T10:35:24;19.95;;;7.15;;
57457;SDS011;43304;52.332;6.110;2023-04-24T10:38:03;17.35;;;7.50;;
57457;SDS011;43304;52.332;6.110;2023-04-24T10:40:33;19.85;;;7.70;;
57457;SDS011;43304;52.332;6.110;2023-04-24T10:43:05;15.80;;;6.07;;
57457;SDS011;43304;52.332;6.110;2023-04-24T10:45:33;16.15;;;5.85;;
57457;SDS011;43304;52.332;6.110;2023-04-24T10:48:09;13.33;;;5.00;;
57457;SDS011;43304;52.332;6.110;2023-04-24T10:50:44;9.48;;;4.18;;
57457;SDS011;43304;52.332;6.110;2023-04-24T10:53:21;12.07;;;4.57;;
57457;SDS011;43304;52.332;6.110;2023-04-24T10:55:51;14.32;;;5.35;;
57457;SDS011;43304;52.332;6.110;2023-04-24T10:58:22;10.48;;;4.63;;
57457;SDS011;43304;52.332;6.110;2023-04-24T11:00:59;12.90;;;5.28;;
57457;SDS011;43304;52.332;6.110;2023-04-24T11:03:33;11.30;;;5.07;;
57457;SDS011;43304;52.332;6.110;2023-04-24T11:06:04;13.43;;;6.88;;
57457;SDS011;43304;52.332;6.110;2023-04-24T11:08:39;10.70;;;4.30;;
57457;SDS011;43304;52.332;6.110;2023-04-24T11:16:21;14.82;;;5.30;;
57457;SDS011;43304;52.332;6.110;2023-04-24T11:18:57;14.38;;;5.13;;
57457;SDS011;43304;52.332;6.110;2023-04-24T11:21:38;16.42;;;6.07;;
57457;SDS011;43304;52.332;6.110;2023-04-24T11:26:54;15.38;;;4.57;;
57457;SDS011;43304;52.332;6.110;2023-04-24T11:32:30;13.27;;;4.95;;
57457;SDS011;43304;52.332;6.110;2023-04-24T11:35:03;10.10;;;4.10;;
57457;SDS011;43304;52.332;6.110;2023-04-24T11:37:34;11.00;;;4.63;;
57457;SDS011;43304;52.332;6.110;2023-04-24T11:40:09;14.93;;;4.95;;
57457;SDS011;43304;52.332;6.110;2023-04-24T11:42:38;13.65;;;4.82;;
57457;SDS011;43304;52.332;6.110;2023-04-24T11:45:10;14.15;;;5.68;;
57457;SDS011;43304;52.332;6.110;2023-04-24T11:47:42;12.43;;;4.93;;
57457;SDS011;43304;52.332;6.110;2023-04-24T11:50:11;13.83;;;4.30;;
57457;SDS011;43304;52.332;6.110;2023-04-24T11:52:40;9.93;;;3.40;;
57457;SDS011;43304;52.332;6.110;2023-04-24T11:57:44;7.32;;;3.00;;
57457;SDS011;43304;52.332;6.110;2023-04-24T12:00:16;7.72;;;2.50;;
57457;SDS011;43304;52.332;6.110;2023-04-24T12:02:45;6.18;;;2.20;;
57457;SDS011;43304;52.332;6.110;2023-04-24T12:05:19;5.45;;;2.22;;
57457;SDS011;43304;52.332;6.110;2023-04-24T12:07:50;6.30;;;1.90;;
57457;SDS011;43304;52.332;6.110;2023-04-24T12:10:21;4.53;;;2.00;;
57457;SDS011;43304;52.332;6.110;2023-04-24T12:12:49;5.78;;;2.30;;
57457;SDS011;43304;52.332;6.110;2023-04-24T12:15:18;6.72;;;2.08;;
57457;SDS011;43304;52.332;6.110;2023-04-24T12:17:46;5.50;;;1.98;;
57457;SDS011;43304;52.332;6.110;2023-04-24T12:20:14;6.60;;;2.30;;
57457;SDS011;43304;52.332;6.110;2023-04-24T12:22:51;7.28;;;2.55;;
57457;SDS011;43304;52.332;6.110;2023-04-24T12:25:24;6.30;;;2.22;;
57457;SDS011;43304;52.332;6.110;2023-04-24T12:27:53;4.03;;;2.00;;
57457;SDS011;43304;52.332;6.110;2023-04-24T12:30:31;5.40;;;2.00;;
57457;SDS011;43304;52.332;6.110;2023-04-24T12:32:58;4.68;;;1.75;;
57457;SDS011;43304;52.332;6.110;2023-04-24T12:35:27;5.32;;;1.83;;
57457;SDS011;43304;52.332;6.110;2023-04-24T12:37:55;4.27;;;1.70;;
57457;SDS011;43304;52.332;6.110;2023-04-24T12:40:22;4.07;;;1.80;;
57457;SDS011;43304;52.332;6.110;2023-04-24T12:42:52;4.15;;;1.52;;
57457;SDS011;43304;52.332;6.110;2023-04-24T12:45:21;3.30;;;1.35;;
57457;SDS011;43304;52.332;6.110;2023-04-24T12:47:50;2.88;;;1.20;;
57457;SDS011;43304;52.332;6.110;2023-04-24T12:50:17;2.83;;;1.35;;
57457;SDS011;43304;52.332;6.110;2023-04-24T12:52:44;3.22;;;1.40;;
57457;SDS011;43304;52.332;6.110;2023-04-24T12:55:12;4.70;;;1.35;;
57457;SDS011;43304;52.332;6.110;2023-04-24T12:57:39;2.93;;;1.30;;
57457;SDS011;43304;52.332;6.110;2023-04-24T13:00:07;3.35;;;1.60;;
57457;SDS011;43304;52.332;6.110;2023-04-24T13:02:35;3.95;;;1.55;;
57457;SDS011;43304;52.332;6.110;2023-04-24T13:05:03;4.07;;;1.83;;
57457;SDS011;43304;52.332;6.110;2023-04-24T13:07:30;4.25;;;1.73;;
57457;SDS011;43304;52.332;6.110;2023-04-24T13:09:57;4.00;;;1.70;;
57457;SDS011;43304;52.332;6.110;2023-04-24T13:12:24;4.93;;;1.98;;
57457;SDS011;43304;52.332;6.110;2023-04-24T13:14:52;4.90;;;1.63;;
57457;SDS011;43304;52.332;6.110;2023-04-24T13:17:19;5.53;;;1.70;;
57457;SDS011;43304;52.332;6.110;2023-04-24T13:19:48;4.82;;;1.75;;
57457;SDS011;43304;52.332;6.110;2023-04-24T13:22:17;3.70;;;1.45;;
57457;SDS011;43304;52.332;6.110;2023-04-24T13:24:45;4.97;;;1.73;;
57457;SDS011;43304;52.332;6.110;2023-04-24T13:27:12;4.23;;;1.50;;
57457;SDS011;43304;52.332;6.110;2023-04-24T13:29:39;2.97;;;1.53;;
57457;SDS011;43304;52.332;6.110;2023-04-24T13:32:06;2.93;;;1.27;;
57457;SDS011;43304;52.332;6.110;2023-04-24T13:34:33;3.78;;;1.52;;
57457;SDS011;43304;52.332;6.110;2023-04-24T13:37:01;5.60;;;1.63;;
57457;SDS011;43304;52.332;6.110;2023-04-24T13:39:30;4.70;;;1.50;;
57457;SDS011;43304;52.332;6.110;2023-04-24T13:41:58;6.70;;;1.98;;
57457;SDS011;43304;52.332;6.110;2023-04-24T13:44:25;3.97;;;1.85;;
57457;SDS011;43304;52.332;6.110;2023-04-24T13:46:52;4.43;;;1.60;;
57457;SDS011;43304;52.332;6.110;2023-04-24T13:49:20;6.63;;;1.90;;
57457;SDS011;43304;52.332;6.110;2023-04-24T13:51:48;6.10;;;2.28;;
57457;SDS011;43304;52.332;6.110;2023-04-24T13:54:15;9.02;;;2.50;;
57457;SDS011;43304;52.332;6.110;2023-04-24T13:56:42;9.02;;;2.78;;
57457;SDS011;43304;52.332;6.110;2023-04-24T13:59:09;9.57;;;3.17;;
57457;SDS011;43304;52.332;6.110;2023-04-24T14:01:36;10.55;;;3.63;;
57457;SDS011;43304;52.332;6.110;2023-04-24T14:04:04;9.27;;;3.13;;
57457;SDS011;43304;52.332;6.110;2023-04-24T14:06:31;9.07;;;3.30;;
57457;SDS011;43304;52.332;6.110;2023-04-24T14:08:58;8.38;;;3.40;;
57457;SDS011;43304;52.332;6.110;2023-04-24T14:11:25;10.38;;;3.45;;
57457;SDS011;43304;52.332;6.110;2023-04-24T14:13:53;10.73;;;3.63;;
57457;SDS011;43304;52.332;6.110;2023-04-24T14:16:22;11.20;;;3.67;;
57457;SDS011;43304;52.332;6.110;2023-04-24T14:18:49;10.17;;;3.50;;
57457;SDS011;43304;52.332;6.110;2023-04-24T14:21:17;9.77;;;3.75;;
57457;SDS011;43304;52.332;6.110;2023-04-24T14:23:44;14.70;;;4.40;;
57457;SDS011;43304;52.332;6.110;2023-04-24T14:26:12;13.68;;;4.60;;
57457;SDS011;43304;52.332;6.110;2023-04-24T14:28:39;12.83;;;4.60;;
57457;SDS011;43304;52.332;6.110;2023-04-24T14:31:06;13.95;;;4.68;;
57457;SDS011;43304;52.332;6.110;2023-04-24T14:33:34;12.13;;;4.10;;
57457;SDS011;43304;52.332;6.110;2023-04-24T14:36:01;13.60;;;5.00;;
57457;SDS011;43304;52.332;6.110;2023-04-24T14:38:29;13.73;;;4.40;;
57457;SDS011;43304;52.332;6.110;2023-04-24T14:40:58;13.98;;;4.40;;
57457;SDS011;43304;52.332;6.110;2023-04-24T14:43:33;14.83;;;4.70;;
57457;SDS011;43304;52.332;6.110;2023-04-24T14:46:02;14.77;;;5.07;;
57457;SDS011;43304;52.332;6.110;2023-04-24T14:48:29;13.75;;;5.00;;
57457;SDS011;43304;52.332;6.110;2023-04-24T14:50:57;16.87;;;5.10;;
57457;SDS011;43304;52.332;6.110;2023-04-24T14:53:24;14.18;;;5.07;;
57457;SDS011;43304;52.332;6.110;2023-04-24T14:55:51;16.95;;;4.97;;